Time;durP1;ratioP1;P1;durP2;ratioP2;P2;SDS_P1;SDS_P2;PMS_P1;PMS_P2;Temp;Humidity;BMP_temperature;BMP_pressure;BME280_temperature;BME280_humidity;BME280_pressure;Samples;Min_cycle;Max_cycle;Signal;HPM_P1;HPM_P2
2022/02/20 00:02:16;;;;;;;4.85;2.05;;;;;;;5.96;47.16;99948.22;1652111;86;21145;-66
2022/02/20 00:04:45;;;;;;;4.83;1.77;;;;;;;5.96;47.19;99938.42;1656927;85;21177;-66
2022/02/20 00:07:11;;;;;;;5.00;1.72;;;;;;;5.94;47.11;99956.40;1630884;86;21413;-66
2022/02/20 00:09:41;;;;;;;5.62;1.80;;;;;;;5.97;47.06;99936.04;1631756;86;21149;-66
2022/02/20 00:12:09;;;;;;;4.40;1.70;;;;;;;6.00;47.08;99955.44;1633101;85;21345;-65
2022/02/20 00:14:37;;;;;;;5.47;1.70;;;;;;;6.01;47.06;99990.17;1632835;86;21220;-66
2022/02/20 00:17:05;;;;;;;3.45;1.55;;;;;;;6.01;47.14;99983.55;1658152;85;21064;-67
2022/02/20 00:19:31;;;;;;;3.42;1.60;;;;;;;5.99;47.18;99980.84;1653295;85;21153;-66
2022/02/20 00:21:59;;;;;;;4.28;1.75;;;;;;;5.98;47.31;99983.23;1630051;86;21111;-66
2022/02/20 00:24:27;;;;;;;6.50;1.90;;;;;;;5.93;47.41;99977.33;1656556;85;21021;-68
2022/02/20 00:26:54;;;;;;;2.98;1.50;;;;;;;5.87;47.42;99983.03;1656142;85;32542;-67
2022/02/20 00:29:21;;;;;;;3.52;1.75;;;;;;;5.87;47.59;99991.51;1634005;86;21085;-67
2022/02/20 00:31:48;;;;;;;5.40;1.75;;;;;;;5.86;47.65;100003.96;1634069;86;21023;-67
2022/02/20 00:34:14;;;;;;;6.47;1.80;;;;;;;5.87;47.79;99993.63;1651631;86;22152;-67
2022/02/20 00:36:41;;;;;;;4.87;1.80;;;;;;;5.83;47.84;99995.16;1651870;86;21489;-67
2022/02/20 00:39:07;;;;;;;5.28;1.80;;;;;;;5.81;47.88;99993.26;1646104;86;21154;-67
2022/02/20 00:41:34;;;;;;;4.10;1.77;;;;;;;5.81;47.91;99994.59;1659708;84;21041;-67
2022/02/20 00:44:02;;;;;;;4.53;1.77;;;;;;;5.81;47.91;100001.21;1630889;86;21066;-65
2022/02/20 00:46:29;;;;;;;4.37;1.50;;;;;;;5.81;47.91;99998.56;1658873;85;22160;-67
2022/02/20 00:48:56;;;;;;;4.62;1.60;;;;;;;5.82;47.83;100002.84;1656434;85;21552;-66
2022/02/20 00:51:23;;;;;;;7.00;1.90;;;;;;;5.85;47.92;100012.94;1633434;86;21575;-66
2022/02/20 00:53:49;;;;;;;6.33;1.80;;;;;;;5.80;47.95;100010.73;1657114;85;21014;-65
2022/02/20 00:56:16;;;;;;;5.80;2.00;;;;;;;5.75;48.11;100015.41;1660352;84;21026;-66
2022/02/20 00:58:45;;;;;;;4.17;1.80;;;;;;;5.74;48.23;100013.02;1631317;86;21214;-65
2022/02/20 01:01:11;;;;;;;4.65;1.65;;;;;;;5.68;48.25;99992.77;1631298;86;20963;-66
2022/02/20 01:03:38;;;;;;;4.70;1.80;;;;;;;5.69;48.36;100023.51;1660558;85;21041;-65
2022/02/20 01:06:06;;;;;;;6.20;2.20;;;;;;;5.70;48.43;100021.96;1657660;85;21549;-66
2022/02/20 01:08:34;;;;;;;4.47;1.82;;;;;;;5.67;48.56;100030.91;1645589;86;21674;-66
2022/02/20 01:11:01;;;;;;;5.15;1.95;;;;;;;5.60;48.56;100031.85;1660505;84;21881;-66
2022/02/20 01:13:28;;;;;;;5.45;1.95;;;;;;;5.66;48.60;100043.36;1631110;86;20985;-66
2022/02/20 01:15:55;;;;;;;5.03;2.00;;;;;;;5.63;48.67;100046.48;1656692;85;21464;-66
2022/02/20 01:18:22;;;;;;;4.33;1.62;;;;;;;5.62;48.77;100039.02;1655937;85;21042;-65
2022/02/20 01:20:48;;;;;;;4.87;1.70;;;;;;;5.62;48.78;100050.14;1636779;86;21656;-65
2022/02/20 01:23:16;;;;;;;4.90;1.80;;;;;;;5.58;48.91;100056.97;1632390;86;21513;-66
2022/02/20 01:25:43;;;;;;;4.90;1.80;;;;;;;5.56;48.97;100063.00;1656174;85;21014;-67
2022/02/20 01:28:09;;;;;;;5.03;1.70;;;;;;;5.56;49.09;100056.38;1655043;85;20970;-66
2022/02/20 01:30:38;;;;;;;6.17;1.98;;;;;;;5.55;49.19;100054.78;1625975;88;21530;-67
2022/02/20 01:33:05;;;;;;;6.08;1.92;;;;;;;5.52;49.25;100073.80;1627624;86;21144;-66
2022/02/20 01:35:32;;;;;;;4.60;1.70;;;;;;;5.48;49.43;100067.37;1655971;85;21173;-67
2022/02/20 01:38:00;;;;;;;4.60;1.70;;;;;;;5.45;49.58;100071.28;1660453;85;21155;-67
2022/02/20 01:40:30;;;;;;;5.53;1.75;;;;;;;5.39;49.67;100073.02;1656754;85;21005;-66
2022/02/20 01:42:58;;;;;;;6.37;1.75;;;;;;;5.39;49.77;100072.22;1630532;86;21615;-66
2022/02/20 01:45:24;;;;;;;5.22;1.80;;;;;;;5.38;49.82;100080.69;1631369;86;21077;-68
2022/02/20 01:47:52;;;;;;;5.28;2.05;;;;;;;5.39;49.91;100086.78;1655961;85;22179;-66
2022/02/20 01:50:20;;;;;;;3.40;1.87;;;;;;;5.36;49.99;100089.89;1656912;85;21569;-66
2022/02/20 01:52:48;;;;;;;6.20;2.35;;;;;;;5.37;50.05;100087.03;1630416;86;21106;-66
2022/02/20 01:55:16;;;;;;;4.45;1.85;;;;;;;5.39;50.10;100099.50;1656434;85;21605;-66
2022/02/20 01:57:47;;;;;;;5.12;2.12;;;;;;;5.40;50.09;100102.45;1652404;85;21055;-66
2022/02/20 02:00:22;;;;;;;5.72;2.00;;;;;;;5.43;50.19;100095.89;1627689;86;22217;-67
2022/02/20 02:02:52;;;;;;;5.50;2.10;;;;;;;5.46;50.23;100101.22;1658810;85;21049;-66
2022/02/20 02:05:37;;;;;;;6.50;2.02;;;;;;;5.49;50.07;100089.63;1656519;85;21058;-66
2022/02/20 02:08:07;;;;;;;5.25;2.05;;;;;;;5.53;50.01;100096.09;1647224;86;21101;-67
2022/02/20 02:10:36;;;;;;;6.70;2.00;;;;;;;5.58;50.00;100087.43;1660723;83;21624;-66
2022/02/20 02:13:22;;;;;;;4.42;1.90;;;;;;;5.61;50.04;100101.01;1657234;85;21230;-66
2022/02/20 02:15:54;;;;;;;5.92;2.00;;;;;;;5.62;50.05;100107.91;1629956;86;21474;-66
2022/02/20 02:18:29;;;;;;;6.10;2.30;;;;;;;5.63;50.04;100114.84;1648184;85;21005;-66
2022/02/20 02:20:58;;;;;;;5.87;2.20;;;;;;;5.65;50.11;100108.77;1650531;86;21076;-67
2022/02/20 02:23:43;;;;;;;5.05;1.70;;;;;;;5.70;50.09;100109.41;1640440;87;21074;-66
2022/02/20 02:26:12;;;;;;;5.40;2.10;;;;;;;5.70;49.94;100113.38;1653028;84;22141;-66
2022/02/20 02:28:42;;;;;;;4.85;2.20;;;;;;;5.67;49.99;100103.25;1626207;88;21517;-66
2022/02/20 02:31:12;;;;;;;5.72;2.10;;;;;;;5.64;50.04;100111.14;1651951;86;21192;-67
2022/02/20 02:33:40;;;;;;;5.45;2.05;;;;;;;5.59;50.17;100101.78;1652049;86;21544;-68
2022/02/20 02:36:08;;;;;;;5.12;1.85;;;;;;;5.56;50.26;100110.20;1645105;86;21071;-66
2022/02/20 02:38:35;;;;;;;4.75;2.00;;;;;;;5.51;50.41;100119.88;1659336;84;21116;-66
2022/02/20 02:41:06;;;;;;;4.70;2.20;;;;;;;5.42;50.56;100108.83;1656559;85;20975;-66
2022/02/20 02:43:34;;;;;;;6.58;2.12;;;;;;;5.37;50.80;100112.19;1652033;86;21233;-67
2022/02/20 02:46:01;;;;;;;6.83;2.25;;;;;;;5.34;50.94;100110.00;1641658;87;21162;-66
2022/02/20 02:48:27;;;;;;;5.78;2.30;;;;;;;5.35;51.05;100112.13;1652664;86;21008;-66
2022/02/20 02:50:54;;;;;;;4.25;1.87;;;;;;;5.33;51.05;100115.52;1651849;86;21525;-66
2022/02/20 02:53:22;;;;;;;5.55;2.22;;;;;;;5.37;51.16;100116.69;1651828;86;21105;-66
2022/02/20 02:55:51;;;;;;;4.70;2.10;;;;;;;5.40;51.20;100124.17;1626188;88;21038;-66
2022/02/20 02:58:24;;;;;;;6.00;1.95;;;;;;;5.40;51.16;100118.34;1626259;88;21572;-66
2022/02/20 03:00:51;;;;;;;4.25;2.02;;;;;;;5.44;51.14;100121.86;1651969;86;20978;-66
2022/02/20 03:03:18;;;;;;;6.35;2.30;;;;;;;5.45;51.06;100110.21;1652048;86;21188;-66
2022/02/20 03:05:45;;;;;;;5.15;1.90;;;;;;;5.45;51.10;100107.56;1642051;87;21098;-66
2022/02/20 03:08:13;;;;;;;4.17;1.90;;;;;;;5.44;51.09;100102.80;1657762;84;21077;-66
2022/02/20 03:10:41;;;;;;;7.03;2.37;;;;;;;5.45;51.13;100120.80;1656720;85;21088;-66
2022/02/20 03:13:09;;;;;;;5.45;2.25;;;;;;;5.39;51.15;100124.66;1656620;85;21151;-67
2022/02/20 03:15:39;;;;;;;5.05;1.92;;;;;;;5.33;51.36;100126.94;1645899;86;22136;-66
2022/02/20 03:18:09;;;;;;;5.35;2.22;;;;;;;5.35;51.23;100128.02;1690226;82;21498;-67
2022/02/20 03:20:36;;;;;;;5.60;2.22;;;;;;;5.35;51.37;100135.97;1662157;84;21271;-67
2022/02/20 03:23:02;;;;;;;4.87;1.92;;;;;;;5.31;51.40;100133.50;1658575;84;21077;-67
2022/02/20 03:25:31;;;;;;;4.78;1.95;;;;;;;5.27;51.52;100140.30;1659811;84;21128;-66
2022/02/20 03:28:00;;;;;;;5.95;2.30;;;;;;;5.26;51.67;100132.05;1660616;83;21915;-66
2022/02/20 03:30:29;;;;;;;6.22;2.27;;;;;;;5.24;51.63;100136.80;1656242;85;21429;-67
2022/02/20 03:32:58;;;;;;;5.42;2.00;;;;;;;5.16;51.76;100130.79;1630525;86;21085;-66
2022/02/20 03:35:25;;;;;;;5.42;2.10;;;;;;;5.13;51.92;100134.42;1656615;85;21577;-67
2022/02/20 03:37:52;;;;;;;6.55;2.20;;;;;;;5.08;52.07;100129.83;1659556;85;21187;-66
2022/02/20 03:40:22;;;;;;;4.75;2.25;;;;;;;5.03;52.25;100132.88;1641325;87;21098;-67
2022/02/20 03:42:49;;;;;;;7.08;2.17;;;;;;;4.97;52.52;100154.97;1657377;84;21038;-66
2022/02/20 03:45:33;;;;;;;5.25;2.10;;;;;;;4.92;52.67;100147.20;1632501;85;21568;-67
2022/02/20 03:48:01;;;;;;;5.03;2.17;;;;;;;4.88;52.81;100150.02;1633251;86;21588;-66
2022/02/20 03:50:30;;;;;;;5.85;2.33;;;;;;;4.86;52.94;100160.02;1634190;86;21186;-66
2022/02/20 03:52:58;;;;;;;5.33;2.17;;;;;;;4.83;53.12;100159.16;1630870;86;21481;-66
2022/02/20 03:55:26;;;;;;;5.75;2.15;;;;;;;4.80;53.22;100164.91;1656775;85;21103;-66
2022/02/20 03:57:55;;;;;;;5.15;2.08;;;;;;;4.77;53.29;100151.33;1655525;85;21018;-66
2022/02/20 04:00:25;;;;;;;5.35;2.20;;;;;;;4.77;53.37;100159.27;1629030;86;21018;-66
2022/02/20 04:02:55;;;;;;;4.83;2.10;;;;;;;4.75;53.48;100174.05;1627218;86;21552;-66
2022/02/20 04:05:22;;;;;;;5.95;2.20;;;;;;;4.75;53.48;100174.05;1651965;86;22164;-66
2022/02/20 04:07:50;;;;;;;5.22;2.22;;;;;;;4.82;53.63;100164.69;1667996;84;21513;-66
2022/02/20 04:10:18;;;;;;;6.42;2.40;;;;;;;4.85;53.51;100166.36;1642056;87;21186;-66
2022/02/20 04:12:46;;;;;;;6.45;2.60;;;;;;;4.87;53.53;100165.63;1654647;86;21010;-66
2022/02/20 04:15:15;;;;;;;6.80;2.45;;;;;;;4.84;53.54;100163.44;1656351;85;21852;-65
2022/02/20 04:17:47;;;;;;;5.50;2.55;;;;;;;4.80;53.61;100150.34;1657530;85;21219;-66
2022/02/20 04:20:16;;;;;;;5.95;2.30;;;;;;;4.77;53.67;100157.94;1630501;86;21173;-66
2022/02/20 04:22:44;;;;;;;6.25;2.60;;;;;;;4.73;53.79;100159.44;1656391;85;21516;-65
2022/02/20 04:25:12;;;;;;;4.28;2.12;;;;;;;4.66;54.03;100162.98;1656654;85;21824;-66
2022/02/20 04:27:40;;;;;;;4.53;2.17;;;;;;;4.61;54.18;100167.37;1648113;86;21121;-66
2022/02/20 04:30:09;;;;;;;6.67;2.20;;;;;;;4.56;54.34;100175.16;1658940;84;21822;-67
2022/02/20 04:32:38;;;;;;;5.67;2.25;;;;;;;4.52;54.42;100177.98;1631312;86;21058;-67
2022/02/20 04:35:09;;;;;;;7.10;2.95;;;;;;;4.46;54.59;100168.58;1656495;85;21574;-67
2022/02/20 04:37:38;;;;;;;7.97;2.50;;;;;;;4.43;54.75;100165.58;1656217;85;21048;-67
2022/02/20 04:40:06;;;;;;;4.92;1.95;;;;;;;4.40;54.78;100170.80;1659197;84;20989;-66
2022/02/20 04:42:36;;;;;;;7.90;2.40;;;;;;;4.41;54.83;100169.79;1656433;85;21211;-66
2022/02/20 04:45:06;;;;;;;7.15;2.42;;;;;;;4.37;55.03;100172.57;1660059;85;21619;-66
2022/02/20 04:47:35;;;;;;;6.12;2.58;;;;;;;4.33;55.15;100181.99;1649598;86;21074;-65
2022/02/20 04:50:01;;;;;;;6.33;2.27;;;;;;;4.30;55.27;100178.47;1659489;84;21041;-66
2022/02/20 04:52:39;;;;;;;5.12;2.22;;;;;;;4.26;55.30;100179.96;1635247;86;21035;-66
2022/02/20 04:55:09;;;;;;;7.12;2.52;;;;;;;4.24;55.50;100182.01;1659318;85;21176;-66
2022/02/20 04:57:37;;;;;;;5.55;2.10;;;;;;;4.20;55.61;100188.27;1633262;85;21077;-67
2022/02/20 05:00:07;;;;;;;5.92;2.37;;;;;;;4.16;55.78;100192.39;1604711;87;21175;-67
2022/02/20 05:02:36;;;;;;;5.95;2.35;;;;;;;4.10;55.98;100187.19;1625150;86;21072;-66
2022/02/20 05:05:03;;;;;;;8.30;2.80;;;;;;;4.07;56.05;100192.92;1634086;85;21172;-66
2022/02/20 05:07:30;;;;;;;7.08;2.55;;;;;;;4.04;56.12;100190.72;1657551;85;22052;-66
2022/02/20 05:09:58;;;;;;;6.70;2.50;;;;;;;3.99;56.28;100198.00;1655768;85;21065;-66
2022/02/20 05:12:25;;;;;;;5.55;2.42;;;;;;;3.92;56.49;100205.21;1633686;86;21273;-68
2022/02/20 05:14:55;;;;;;;6.17;3.15;;;;;;;3.89;56.66;100210.41;1632575;86;21506;-67
2022/02/20 05:17:26;;;;;;;7.28;2.45;;;;;;;3.84;56.82;100212.90;1655618;85;21069;-65
2022/02/20 05:19:54;;;;;;;6.70;2.60;;;;;;;3.83;56.96;100225.02;1645458;86;21190;-66
2022/02/20 05:22:23;;;;;;;6.62;2.60;;;;;;;3.80;57.08;100224.95;1661881;85;21457;-67
2022/02/20 05:24:52;;;;;;;6.37;2.45;;;;;;;3.80;57.13;100220.98;1632712;86;21117;-65
2022/02/20 05:27:19;;;;;;;7.87;2.72;;;;;;;3.82;57.16;100241.39;1656391;85;21120;-66
2022/02/20 05:29:49;;;;;;;6.60;2.75;;;;;;;3.84;57.18;100227.43;1657408;85;21021;-68
2022/02/20 05:32:23;;;;;;;6.78;3.05;;;;;;;3.85;57.17;100239.63;1632996;86;22183;-65
2022/02/20 05:35:00;;;;;;;5.97;2.30;;;;;;;3.84;57.25;100243.28;1621742;86;21057;-67
2022/02/20 05:37:28;;;;;;;6.53;2.60;;;;;;;3.86;57.30;100247.84;1656307;85;21105;-66
2022/02/20 05:39:55;;;;;;;5.45;2.40;;;;;;;3.87;57.33;100244.16;1649449;86;21146;-65
2022/02/20 05:42:23;;;;;;;8.45;2.90;;;;;;;3.86;57.33;100239.92;1658877;84;21061;-67
2022/02/20 05:44:55;;;;;;;6.30;2.55;;;;;;;3.89;57.34;100240.00;1634709;86;21565;-67
2022/02/20 05:47:22;;;;;;;7.90;2.40;;;;;;;3.92;57.36;100239.04;1630777;85;21164;-67
2022/02/20 05:49:49;;;;;;;8.08;2.65;;;;;;;3.91;57.30;100240.05;1658991;85;21013;-67
2022/02/20 05:52:16;;;;;;;5.40;2.50;;;;;;;3.94;57.25;100242.25;1660846;85;20986;-67
2022/02/20 05:54:44;;;;;;;6.45;2.98;;;;;;;3.97;57.23;100256.34;1630785;86;21058;-66
2022/02/20 05:57:12;;;;;;;5.92;2.42;;;;;;;4.00;57.16;100251.14;1653850;85;21141;-67
2022/02/20 05:59:40;;;;;;;6.55;2.40;;;;;;;4.02;57.06;100253.58;1651635;86;21631;-67
2022/02/20 06:02:07;;;;;;;8.13;2.60;;;;;;;4.08;56.92;100255.31;1648485;86;21058;-66
2022/02/20 06:04:34;;;;;;;6.00;3.05;;;;;;;4.13;56.85;100253.63;1683818;84;21022;-66
2022/02/20 06:07:14;;;;;;;5.92;2.58;;;;;;;4.20;56.77;100253.55;1682218;84;21013;-67
2022/02/20 06:09:43;;;;;;;4.87;2.40;;;;;;;4.23;56.62;100265.00;1658732;85;21498;-67
2022/02/20 06:12:27;;;;;;;8.15;3.00;;;;;;;4.28;56.59;100256.39;1657082;85;21001;-67
2022/02/20 06:15:08;;;;;;;7.87;3.00;;;;;;;4.32;56.50;100268.16;1646633;86;21067;-67
2022/02/20 06:17:36;;;;;;;5.12;2.52;;;;;;;4.36;56.45;100262.70;1663790;83;21081;-67
2022/02/20 06:20:17;;;;;;;7.35;2.90;;;;;;;4.41;56.42;100267.63;1622160;86;21120;-67
2022/02/20 06:22:45;;;;;;;6.97;2.80;;;;;;;4.49;56.34;100274.44;1631470;86;21133;-67
2022/02/20 06:25:21;;;;;;;6.97;3.02;;;;;;;4.51;56.25;100264.45;1629858;86;21582;-67
2022/02/20 06:27:49;;;;;;;6.15;2.72;;;;;;;4.56;56.13;100283.61;1616205;86;21526;-67
2022/02/20 06:30:17;;;;;;;6.17;2.80;;;;;;;4.60;56.16;100270.22;1656965;85;21116;-68
2022/02/20 06:32:45;;;;;;;5.70;2.55;;;;;;;4.66;56.04;100277.27;1657328;85;21061;-67
2022/02/20 06:35:12;;;;;;;6.53;2.75;;;;;;;4.72;55.92;100284.30;1646248;86;21061;-68
2022/02/20 06:37:41;;;;;;;7.17;2.40;;;;;;;4.77;55.83;100282.30;1658955;84;21104;-65
2022/02/20 06:40:09;;;;;;;5.65;2.65;;;;;;;4.79;55.57;100306.18;1652663;84;21126;-67
2022/02/20 06:42:37;;;;;;;6.12;2.75;;;;;;;4.84;55.53;100289.13;1626266;88;21077;-67
2022/02/20 06:45:07;;;;;;;7.15;2.60;;;;;;;4.90;55.49;100290.04;1651101;86;21061;-68
2022/02/20 06:47:38;;;;;;;6.03;2.47;;;;;;;4.99;55.36;100300.60;1655556;85;21158;-66
2022/02/20 06:50:10;;;;;;;4.87;2.42;;;;;;;5.01;55.06;100303.04;1625608;86;21600;-67
2022/02/20 06:52:40;;;;;;;5.95;3.17;;;;;;;5.03;54.97;100296.47;1625280;88;21145;-68
2022/02/20 06:55:11;;;;;;;6.25;2.27;;;;;;;5.06;54.90;100313.73;1649041;85;21083;-67
2022/02/20 06:57:40;;;;;;;8.13;2.55;;;;;;;5.14;54.87;100310.78;1625978;86;21027;-67
2022/02/20 07:00:10;;;;;;;7.22;2.55;;;;;;;5.22;54.68;100320.23;1632171;86;21563;-67
2022/02/20 07:02:39;;;;;;;7.35;2.83;;;;;;;5.29;54.50;100323.58;1637737;85;21092;-67
2022/02/20 07:05:07;;;;;;;6.65;2.50;;;;;;;5.33;54.42;100309.67;1653773;85;21104;-67
2022/02/20 07:07:34;;;;;;;6.12;2.60;;;;;;;5.37;54.18;100316.12;1659271;85;21053;-66
2022/02/20 07:10:03;;;;;;;7.72;2.90;;;;;;;5.44;54.06;100321.31;1649072;86;21087;-67
2022/02/20 07:12:31;;;;;;;5.53;2.98;;;;;;;5.48;54.01;100333.58;1660744;84;21042;-67
2022/02/20 07:14:58;;;;;;;7.30;2.77;;;;;;;5.57;54.05;100325.59;1636374;86;21066;-67
2022/02/20 07:17:25;;;;;;;8.50;3.33;;;;;;;5.67;53.87;100321.05;1655871;85;21433;-66
2022/02/20 07:19:51;;;;;;;7.97;2.62;;;;;;;5.74;53.60;100325.70;1659953;85;21469;-68
2022/02/20 07:22:18;;;;;;;5.35;2.30;;;;;;;5.82;53.43;100326.67;1631291;86;21080;-66
2022/02/20 07:24:46;;;;;;;6.17;2.67;;;;;;;5.87;53.13;100324.95;1632560;86;21178;-67
2022/02/20 07:27:12;;;;;;;10.55;2.50;;;;;;;5.90;53.00;100326.34;1658548;85;21060;-67
2022/02/20 07:29:39;;;;;;;5.50;2.30;;;;;;;5.94;52.86;100310.80;1657156;85;21085;-67
2022/02/20 07:32:08;;;;;;;6.58;2.50;;;;;;;6.00;52.78;100312.00;1646665;86;21565;-68
2022/02/20 07:34:35;;;;;;;8.20;2.50;;;;;;;6.05;52.68;100312.09;1664414;84;21145;-68
2022/02/20 07:37:02;;;;;;;6.22;2.33;;;;;;;6.17;52.42;100319.25;1656398;85;21124;-67
2022/02/20 07:39:29;;;;;;;6.42;2.20;;;;;;;6.24;52.20;100318.59;1657041;85;21017;-68
2022/02/20 07:41:56;;;;;;;6.35;2.40;;;;;;;6.28;51.89;100323.19;1646635;86;21556;-66
2022/02/20 07:44:23;;;;;;;6.15;2.58;;;;;;;6.32;51.65;100317.72;1660135;84;21065;-67
2022/02/20 07:46:51;;;;;;;5.58;2.52;;;;;;;6.39;51.64;100316.78;1632134;86;21169;-67
2022/02/20 07:49:19;;;;;;;8.18;2.67;;;;;;;6.46;51.58;100312.95;1630271;86;21704;-67
2022/02/20 07:51:45;;;;;;;6.00;2.30;;;;;;;6.52;51.42;100317.31;1656784;85;21576;-67
2022/02/20 07:54:12;;;;;;;5.95;2.10;;;;;;;6.60;51.09;100314.80;1660531;85;21279;-67
2022/02/20 07:56:39;;;;;;;6.05;1.95;;;;;;;6.64;50.82;100309.83;1630654;86;21122;-67
2022/02/20 07:59:06;;;;;;;4.62;2.10;;;;;;;6.64;50.48;100306.64;1657011;85;21116;-67
2022/02/20 08:01:33;;;;;;;5.10;2.12;;;;;;;6.66;50.34;100301.92;1657732;84;21184;-65
2022/02/20 08:04:00;;;;;;;4.42;1.92;;;;;;;6.70;50.40;100301.72;1630279;86;21536;-66
2022/02/20 08:06:27;;;;;;;6.03;2.00;;;;;;;6.77;50.25;100301.05;1656355;85;21109;-67
2022/02/20 08:08:53;;;;;;;4.95;2.00;;;;;;;6.83;49.81;100286.03;1655009;85;21121;-67
2022/02/20 08:11:20;;;;;;;7.33;2.20;;;;;;;6.89;49.53;100292.24;1626247;88;21045;-67
2022/02/20 08:13:48;;;;;;;6.08;2.30;;;;;;;6.89;49.90;100297.55;1654080;85;21195;-67
2022/02/20 08:16:15;;;;;;;6.20;2.02;;;;;;;6.94;49.72;100306.92;1657594;85;21155;-68
2022/02/20 08:18:45;;;;;;;5.80;2.55;;;;;;;6.99;49.68;100307.82;1642001;87;21006;-67
2022/02/20 08:21:13;;;;;;;4.80;2.20;;;;;;;7.05;49.84;100302.88;1654175;86;21006;-67
2022/02/20 08:23:39;;;;;;;5.97;2.30;;;;;;;7.16;49.84;100309.17;1657344;85;20974;-67
2022/02/20 08:26:06;;;;;;;6.28;2.42;;;;;;;7.27;49.75;100318.10;1656262;85;21844;-67
2022/02/20 08:28:33;;;;;;;6.92;2.60;;;;;;;7.30;49.04;100316.30;1646663;86;21106;-68
2022/02/20 08:31:00;;;;;;;6.45;2.50;;;;;;;7.34;49.60;100313.95;1661755;84;21062;-66
2022/02/20 08:33:28;;;;;;;5.70;2.30;;;;;;;7.42;49.41;100308.26;1657072;85;21085;-68
2022/02/20 08:35:55;;;;;;;5.55;2.75;;;;;;;7.52;49.30;100312.40;1655712;85;21603;-66
2022/02/20 08:38:21;;;;;;;6.78;2.62;;;;;;;7.57;48.99;100315.15;1630262;86;21139;-67
2022/02/20 08:40:52;;;;;;;8.70;2.75;;;;;;;7.62;48.60;100305.10;1656349;85;21073;-66
2022/02/20 08:43:20;;;;;;;6.83;2.70;;;;;;;7.60;48.26;100304.03;1656362;85;21025;-67
2022/02/20 08:45:49;;;;;;;6.75;2.37;;;;;;;7.64;48.61;100306.48;1647909;86;21106;-66
2022/02/20 08:48:15;;;;;;;6.05;2.85;;;;;;;7.73;48.54;100315.66;1658060;85;21164;-68
2022/02/20 08:50:42;;;;;;;7.28;2.98;;;;;;;7.78;48.16;100297.63;1652087;86;21721;-67
2022/02/20 08:53:10;;;;;;;4.83;2.33;;;;;;;7.79;47.77;100313.86;1658318;85;21641;-67
2022/02/20 08:55:37;;;;;;;5.28;2.37;;;;;;;7.79;47.75;100315.19;1647206;86;21070;-67
2022/02/20 08:58:04;;;;;;;6.83;2.62;;;;;;;7.84;47.77;100321.12;1658222;84;21116;-67
2022/02/20 09:00:31;;;;;;;8.00;2.85;;;;;;;7.92;47.59;100319.36;1631151;86;21077;-66
2022/02/20 09:02:58;;;;;;;6.08;2.30;;;;;;;7.97;47.46;100314.92;1632483;86;21159;-67
2022/02/20 09:05:27;;;;;;;6.47;2.55;;;;;;;8.03;47.53;100312.31;1631806;86;21007;-67
2022/02/20 09:07:54;;;;;;;6.65;2.25;;;;;;;8.06;46.93;100300.69;1630438;86;21909;-67
2022/02/20 09:10:20;;;;;;;8.48;3.25;;;;;;;8.05;46.74;100308.36;1656465;85;21547;-67
2022/02/20 09:12:47;;;;;;;7.60;3.05;;;;;;;8.07;46.95;100311.59;1657094;85;21497;-68
2022/02/20 09:15:14;;;;;;;6.95;2.58;;;;;;;8.16;47.00;100315.45;1626324;86;21130;-68
2022/02/20 09:17:43;;;;;;;7.67;2.72;;;;;;;8.30;46.57;100312.41;1625567;88;21540;-67
2022/02/20 09:20:11;;;;;;;6.45;2.80;;;;;;;8.45;46.24;100316.60;1664582;85;21125;-67
2022/02/20 09:22:41;;;;;;;5.67;2.40;;;;;;;8.58;45.99;100314.89;1679425;85;21052;-68
2022/02/20 09:25:09;;;;;;;5.42;2.25;;;;;;;8.78;45.95;100320.16;1646632;86;21666;-68
2022/02/20 09:27:36;;;;;;;4.85;2.47;;;;;;;8.94;45.03;100315.27;1657156;85;21152;-68
2022/02/20 09:30:06;;;;;;;6.80;2.85;;;;;;;9.02;44.28;100316.69;1656277;85;21120;-67
2022/02/20 09:32:34;;;;;;;7.15;3.05;;;;;;;9.00;44.17;100314.26;1647684;86;21121;-67
2022/02/20 09:35:02;;;;;;;6.45;3.00;;;;;;;8.99;43.91;100311.33;1659693;84;21034;-67
2022/02/20 09:37:30;;;;;;;6.05;2.58;;;;;;;8.95;43.78;100322.22;1655982;85;21072;-67
2022/02/20 09:39:56;;;;;;;6.03;2.80;;;;;;;8.90;43.75;100316.30;1652113;86;21756;-68
2022/02/20 09:42:23;;;;;;;5.58;2.50;;;;;;;8.80;43.55;100320.72;1626113;88;21662;-68
2022/02/20 09:44:50;;;;;;;6.75;2.67;;;;;;;8.74;43.73;100319.86;1634466;86;21101;-67
2022/02/20 09:47:18;;;;;;;6.53;2.72;;;;;;;8.70;43.56;100322.75;1633408;86;21018;-68
2022/02/20 09:49:45;;;;;;;6.45;3.00;;;;;;;8.62;43.29;100339.15;1631872;86;21073;-68
2022/02/20 09:52:12;;;;;;;5.72;2.50;;;;;;;8.54;43.46;100332.95;1620468;85;21154;-66
2022/02/20 09:54:39;;;;;;;6.58;2.77;;;;;;;8.47;43.39;100321.69;1658069;85;21081;-66
2022/02/20 09:57:08;;;;;;;6.62;3.10;;;;;;;8.29;43.44;100331.58;1659453;85;21081;-67
2022/02/20 09:59:35;;;;;;;6.78;2.85;;;;;;;8.13;44.06;100331.89;1667114;84;21140;-66
2022/02/20 10:02:12;;;;;;;6.45;2.67;;;;;;;8.02;44.42;100330.12;1663016;85;20986;-67
2022/02/20 10:04:45;;;;;;;6.33;2.77;;;;;;;7.96;44.29;100308.50;1633417;86;21143;-66
2022/02/20 10:07:40;;;;;;;5.65;2.40;;;;;;;7.96;44.46;100305.34;1637497;86;21054;-65
2022/02/20 10:10:17;;;;;;;6.17;2.33;;;;;;;8.07;44.57;100316.91;1660940;85;20990;-68
2022/02/20 10:12:48;;;;;;;5.75;2.50;;;;;;;8.26;44.27;100301.47;1660122;85;21013;-67
2022/02/20 10:15:35;;;;;;;5.97;2.60;;;;;;;8.39;43.63;100294.97;1664398;84;20946;-65
2022/02/20 10:18:23;;;;;;;5.87;2.50;;;;;;;8.51;43.46;100284.20;1630565;86;21034;-68
2022/02/20 10:21:10;;;;;;;5.62;2.10;;;;;;;8.65;43.11;100285.41;1661534;85;21061;-66
2022/02/20 10:24:05;;;;;;;5.65;2.30;;;;;;;8.76;42.26;100270.36;1656183;85;21437;-67
2022/02/20 10:26:51;;;;;;;5.67;2.37;;;;;;;8.83;42.12;100268.29;1642339;87;21117;-67
2022/02/20 10:29:26;;;;;;;10.05;2.80;;;;;;;8.91;41.68;100275.28;1674337;84;21179;-68
2022/02/20 10:31:54;;;;;;;7.00;2.60;;;;;;;8.96;41.81;100266.55;1630346;86;21179;-67
2022/02/20 10:34:25;;;;;;;7.40;3.00;;;;;;;9.12;41.65;100284.27;1661886;85;21065;-67
2022/02/20 10:37:03;;;;;;;7.22;2.60;;;;;;;9.18;41.20;100268.31;1657108;85;21627;-67
2022/02/20 10:39:34;;;;;;;6.25;2.60;;;;;;;9.26;41.41;100257.99;1653063;86;21046;-68
2022/02/20 10:42:16;;;;;;;9.50;5.05;;;;;;;9.34;41.24;100260.70;1672280;84;20950;-68
2022/02/20 10:45:04;;;;;;;7.83;3.05;;;;;;;9.39;41.23;100258.89;1657677;85;21232;-68
2022/02/20 10:47:32;;;;;;;7.65;3.20;;;;;;;9.42;40.81;100256.78;1648712;86;21010;-67
2022/02/20 10:50:21;;;;;;;8.28;3.87;;;;;;;9.44;41.29;100248.78;1660665;84;21148;-67
2022/02/20 10:53:19;;;;;;;7.97;4.00;;;;;;;9.46;41.16;100250.67;1627004;86;21042;-67
2022/02/20 10:55:48;;;;;;;9.45;3.70;;;;;;;9.38;41.13;100245.83;1656396;85;21171;-69
2022/02/20 10:58:26;;;;;;;13.25;6.87;;;;;;;9.27;41.35;100242.27;1659176;85;21750;-67
2022/02/20 11:00:56;;;;;;;11.28;4.80;;;;;;;9.22;41.44;100243.58;1651323;86;21636;-66
2022/02/20 11:03:25;;;;;;;6.30;3.10;;;;;;;9.21;41.52;100237.16;1660736;84;21034;-66
2022/02/20 11:05:52;;;;;;;7.05;3.00;;;;;;;9.23;41.92;100232.39;1631380;86;21093;-66
2022/02/20 11:08:22;;;;;;;7.53;3.58;;;;;;;9.33;41.70;100229.79;1656949;85;21090;-67
2022/02/20 11:10:50;;;;;;;6.87;3.40;;;;;;;9.49;41.20;100240.03;1655949;85;21971;-66
2022/02/20 11:13:20;;;;;;;8.53;3.47;;;;;;;9.62;41.00;100227.57;1647161;86;21640;-66
2022/02/20 11:15:48;;;;;;;5.97;2.62;;;;;;;9.63;40.94;100216.63;1663396;84;21592;-67
2022/02/20 11:18:21;;;;;;;6.50;2.90;;;;;;;9.58;40.27;100214.49;1656818;85;21616;-67
2022/02/20 11:20:53;;;;;;;7.42;3.65;;;;;;;9.46;40.50;100211.22;1651081;86;21044;-67
2022/02/20 11:23:27;;;;;;;6.92;3.40;;;;;;;9.37;41.26;100218.88;1624589;88;21159;-67
2022/02/20 11:25:59;;;;;;;8.90;3.85;;;;;;;9.33;41.13;100217.80;1650731;85;26676;-66
2022/02/20 11:28:25;;;;;;;7.58;3.47;;;;;;;9.31;41.36;100202.58;1659876;85;21034;-67
2022/02/20 11:30:52;;;;;;;8.18;3.60;;;;;;;9.37;42.08;100214.88;1646780;86;21451;-67
2022/02/20 11:33:20;;;;;;;8.18;3.58;;;;;;;9.36;42.19;100198.09;1659843;84;21014;-67
2022/02/20 11:35:50;;;;;;;8.88;4.03;;;;;;;9.32;42.55;100194.34;1637555;85;21974;-67
2022/02/20 11:38:22;;;;;;;7.35;3.75;;;;;;;9.31;42.71;100179.42;1657311;85;21119;-67
2022/02/20 11:41:06;;;;;;;5.15;3.08;;;;;;;9.34;42.93;100171.42;1662558;84;21624;-67
2022/02/20 11:43:45;;;;;;;7.45;3.05;;;;;;;9.42;42.91;100176.27;1650698;85;21021;-66
2022/02/20 11:46:23;;;;;;;7.92;3.50;;;;;;;9.50;42.17;100168.31;1626118;88;20989;-68